• Join FlightAware (Why Join?)
  • Login
  • US Flag 
10:23AM EST


 

Airport Tracker/Info


-or-


 

Live Flight TrackerFlight Track Log ✈ DAL268 ✈ 16-Sep-2013 ✈ KJFK - LLBG / TLV

Flight Track Log - Related Links

Times and Time Zones

All times are in EDT time to prevent confusion due to time zone crossing. See the DAL268 flight status page for this flight to view local times or setup timezone preferences in your user account.

Time Position Orientation Groundspeed Altitude Reporting Facility
EDT Latitude Longitude Course Direction KTS MPH feet Rate Location/Type
09:04PM 40.6350 -73.7770 360° North  Level FlightAware
09:06PM 40.6000 -73.4687 90° East  Level FlightAware Approximate
09:07PM 40.5833 -73.2844 90° East  Level FlightAware Approximate
09:07PM 40.6350 -73.7780 90° East  Level FlightAware
09:11PM 40.5939 -73.4257 108° East  Level FlightAware Approximate
09:14PM 40.5844 -73.3874 108° East  Level FlightAware Approximate
09:18PM 40.5833 -73.3238 90° East  Level FlightAware Approximate
09:24PM 40.6000 -73.4655 90° East  Level FlightAware Approximate
09:25PM 40.5833 -73.2813 90° East  Level FlightAware Approximate
09:26PM 40.5547 -73.1012 97° East  Level FlightAware Approximate
09:28PM 40.6270 -73.7810 303° West 74 85  Level FlightAware
09:28PM 40.6320 -73.7930 299° West 140 161 240 Level FlightAware
09:28PM 40.6410 -73.8120 302° West 180 207 360 Level FlightAware
09:29PM 40.6440 -73.8200 296° West 178 205 200 1,980 Climbing FlightAware
09:29PM 40.6450 -73.8280 279° West 179 206 500 1,620 Climbing FlightAware
09:29PM 40.6360 -73.8570 248° West 199 229 1,200 1,320 Climbing FlightAware
09:30PM 40.6230 -73.8760 228° Southwest 215 247 1,600 1,020 Climbing FlightAware
09:30PM 40.6090 -73.8960 227° Southwest 235 270 1,900 840 Climbing FlightAware
09:30PM 40.6010 -73.9020 210° Southwest 244 281 2,000 720 Climbing FlightAware
09:30PM 40.5910 -73.9050 193° South 257 296 2,100 660 Climbing FlightAware
09:31PM 40.5580 -73.8930 165° South 280 322 2,400 1,200 Climbing FlightAware
09:31PM 40.5470 -73.8770 132° Southeast 276 318 2,900 2,400 Climbing FlightAware
09:31PM 40.5430 -73.8670 118° Southeast 274 315 3,200 2,220 Climbing FlightAware
09:31PM 40.5390 -73.8550 114° Southeast 271 312 3,500 2,580 Climbing FlightAware
09:31PM 40.5360 -73.8410 106° East 271 312 3,900 1,620 Climbing FlightAware
09:31PM 40.5350 -73.8250 95° East 277 319 4,000 1,500 Climbing FlightAware
09:32PM 40.5400 -73.7880 80° East 279 321 4,700 2,280 Climbing FlightAware
09:32PM 40.5500 -73.7540 69° East 279 321 5,700 2,340 Climbing FlightAware
09:32PM 40.5620 -73.7150 68° East 286 329 6,500 2,160 Climbing FlightAware
09:33PM 40.5680 -73.6960 67° East 288 331 7,000 2,220 Climbing FlightAware
09:33PM 40.5780 -73.6630 68° East 292 336 7,700 2,100 Climbing FlightAware
09:33PM 40.5870 -73.6340 68° East 298 343 8,300 2,100 Climbing FlightAware
09:34PM 40.5970 -73.5990 69° East 303 349 9,000 1,860 Climbing FlightAware
09:34PM 40.6020 -73.5790 72° East 308 354 9,300 1,740 Climbing FlightAware
09:34PM 40.6040 -73.5510 85° East 314 361 9,800 1,320 Climbing FlightAware
09:35PM 40.5980 -73.4830 97° East 343 395 10,400 960 Climbing FlightAware
09:35PM 40.5900 -73.3960 97° East 380 437 11,000 1,080 Climbing FlightAware
09:36PM 40.5820 -73.3040 97° East 404 465 11,900 1,620 Climbing FlightAware
09:36PM 40.5750 -73.2260 97° East 413 475 12,900 1,920 Climbing FlightAware
09:37PM 40.5810 -73.1150 86° East 418 481 14,400 1,920 Climbing FlightAware
09:37PM 40.5920 -73.0860 63° Northeast 413 475 14,800 2,100 Climbing FlightAware
09:38PM 40.6130 -73.0550 48° Northeast 408 470 15,400 2,040 Climbing FlightAware
09:38PM 40.6580 -73.0050 40° Northeast 414 476 16,400 1,860 Climbing FlightAware
09:39PM 40.7160 -72.9420 39° Northeast 426 490 17,600 1,680 Climbing FlightAware
09:39PM 40.7690 -72.8840 40° Northeast 437 503 18,500 1,380 Climbing FlightAware
09:40PM 40.8240 -72.8240 40° Northeast 449 517 19,300 1,320 Climbing FlightAware
09:41PM 40.8810 -72.7610 40° Northeast 457 526 20,100 1,260 Climbing FlightAware
09:41PM 40.9460 -72.6830 42° Northeast 482 555 20,900 1,260 Climbing FlightAware
09:42PM 40.9970 -72.6120 46° Northeast 491 565 21,700 1,500 Climbing FlightAware
09:42PM 41.0580 -72.5220 48° Northeast 500 575 22,700 1,500 Climbing FlightAware
09:43PM 41.1090 -72.4460 48° Northeast 507 583 23,500 1,320 Climbing FlightAware
09:44PM 41.1670 -72.3590 48° Northeast 515 593 24,300 1,320 Climbing FlightAware
09:44PM 41.2220 -72.2760 49° Northeast 521 600 25,100 1,320 Climbing FlightAware
09:45PM 41.2810 -72.1850 49° Northeast 527 606 25,900 1,380 Climbing FlightAware
09:45PM 41.3340 -72.1050 49° Northeast 531 611 26,700 1,260 Climbing FlightAware
09:46PM 41.3930 -72.0150 49° Northeast 535 616 27,400 1,080 Climbing FlightAware
09:47PM 41.4450 -71.9350 49° Northeast 540 621 28,000 1,200 Climbing FlightAware
09:47PM 41.5030 -71.8460 49° Northeast 540 621 28,800 1,440 Climbing FlightAware
09:48PM 41.5670 -71.7470 49° Northeast 538 619 29,800 1,440 Climbing FlightAware
09:48PM 41.6190 -71.6670 49° Northeast 538 619 30,500 1,020 Climbing FlightAware
09:49PM 41.6760 -71.5800 49° Northeast 542 624 31,000 360 Climbing FlightAware
09:49PM 41.7360 -71.4860 49° Northeast 542 624 31,000 -120 Level FlightAware
09:50PM 41.7940 -71.3970 49° Northeast 542 624 30,900 -120 Descending FlightAware
09:51PM 41.8470 -71.3140 49° Northeast 541 623 30,900  Level FlightAware
09:51PM 41.9060 -71.2220 49° Northeast 541 623 30,900  Level FlightAware
09:52PM 41.9660 -71.1270 50° Northeast 542 624 30,900  Level FlightAware
09:52PM 42.0200 -71.0430 49° Northeast 541 623 30,900  Level FlightAware
09:53PM 42.0770 -70.9530 50° Northeast 541 623 30,900  Level FlightAware
09:54PM 42.1360 -70.8580 50° Northeast 541 623 30,900  Level FlightAware
09:54PM 42.1850 -70.7810 49° Northeast 542 624 30,900  Level FlightAware
09:55PM 42.2410 -70.6920 50° Northeast 543 625 30,900  Level FlightAware
09:55PM 42.3000 -70.5970 50° Northeast 544 626 30,900  Level FlightAware
09:56PM 42.3600 -70.5010 50° Northeast 544 626 30,900  Level FlightAware
09:56PM 42.4200 -70.4040 50° Northeast 544 626 30,900  Level FlightAware
09:57PM 42.4760 -70.3140 50° Northeast 543 625 30,900  Level FlightAware
09:58PM 42.5290 -70.2280 50° Northeast 544 626 30,900  Level FlightAware
09:58PM 42.5880 -70.1330 50° Northeast 544 626 30,900  Level FlightAware
09:59PM 42.6460 -70.0380 50° Northeast 545 627 30,900  Level FlightAware
09:59PM 42.6990 -69.9520 50° Northeast 541 623 30,900  Level FlightAware
10:00PM 42.7560 -69.8570 51° Northeast 541 623 30,900  Level FlightAware
10:01PM 42.8110 -69.7660 50° Northeast 541 623 30,900  Level FlightAware
10:01PM 42.8680 -69.6720 50° Northeast 542 624 30,900  Level FlightAware
10:02PM 42.9160 -69.5930 50° Northeast 543 625 30,900  Level FlightAware
10:02PM 42.9720 -69.5000 51° Northeast 545 627 30,900  Level FlightAware
10:03PM 43.0350 -69.3950 51° Northeast 547 629 30,900  Level FlightAware
10:03PM 43.0930 -69.2990 50° Northeast 550 633 30,900  Level FlightAware
10:04PM 43.1550 -69.1940 51° Northeast 551 634 30,900  Level FlightAware
10:05PM 43.2040 -69.1100 51° Northeast 551 634 30,900  Level FlightAware
10:05PM 43.2540 -69.0270 50° Northeast 551 634 30,900  Level FlightAware
10:06PM 43.3030 -68.9440 51° Northeast 551 634 30,900  Level FlightAware
10:07PM 43.3520 -68.8610 51° Northeast 551 634 30,900  Level FlightAware
10:07PM 43.4020 -68.7750 51° Northeast 551 634 30,900  Level FlightAware
10:08PM 43.4510 -68.6910 51° Northeast 551 634 30,900  Level FlightAware
10:08PM 43.5020 -68.6050 51° Northeast 551 634 30,900  Level FlightAware
10:09PM 43.5510 -68.5220 51° Northeast 551 634 30,900  Level FlightAware
10:10PM 43.6000 -68.4380 51° Northeast 551 634 30,900  Level FlightAware
10:10PM 43.6490 -68.3540 51° Northeast 551 634 30,900  Level FlightAware
10:11PM 43.6950 -68.2750 51° Northeast 551 634 30,900  Level FlightAware
10:11PM 43.7440 -68.1910 51° Northeast 551 634 30,900  Level FlightAware
10:12PM 43.9070 -67.9020 52° Northeast 550 633 30,900  Level FlightAware
10:13PM 43.9730 -67.7860 52° Northeast 552 635 30,900  Level FlightAware
10:13PM 44.0220 -67.7000 52° Northeast 553 636 30,900  Level FlightAware
10:14PM 44.0770 -67.6020 52° Northeast 554 638 30,900  Level FlightAware
10:14PM 44.1340 -67.5010 52° Northeast 555 639 30,900  Level FlightAware
10:15PM 44.1900 -67.4020 52° Northeast 555 639 30,900  Level FlightAware
10:15PM 44.2460 -67.3010 52° Northeast 556 640 30,900  Level FlightAware
10:16PM 44.3020 -67.2010 52° Northeast 557 641 30,900  Level FlightAware
10:17PM 44.3570 -67.1020 52° Northeast 561 646 30,900  Level FlightAware
10:17PM 44.4250 -66.9890 50° Northeast 562 647 30,900  Level FlightAware
10:18PM 44.4900 -66.9020 44° Northeast 555 639 30,900  Level FlightAware
10:19PM 44.5670 -66.8020 43° Northeast 554 638 30,900  Level FlightAware
10:19PM 44.6330 -66.7170 42° Northeast 552 635 30,900  Level FlightAware
10:20PM 44.6910 -66.6430 42° Northeast 551 634 30,900  Level FlightAware
10:20PM 44.7560 -66.5590 43° Northeast 549 632 30,900  Level FlightAware
10:21PM 44.8330 -66.4590 43° Northeast 548 631 30,900  Level FlightAware
10:21PM 44.8970 -66.3750 43° Northeast 554 638 30,900  Level FlightAware
10:22PM 44.9630 -66.2870 43° Northeast 554 638 30,900  Level FlightAware
10:23PM 45.0280 -66.2020 43° Northeast 554 638 30,900  Level FlightAware
10:23PM 45.1040 -66.1010 43° Northeast 553 636 30,900 60 Level FlightAware
10:24PM 45.1680 -66.0170 43° Northeast 553 636 31,000  Climbing FlightAware
10:24PM 45.2350 -65.9280 43° Northeast 551 634 30,900 -120 Descending FlightAware
10:25PM 45.2980 -65.8430 43° Northeast 550 633 30,900  Level FlightAware
10:26PM 45.3640 -65.7550 43° Northeast 549 632 30,900 60 Level FlightAware
10:26PM 45.4290 -65.6670 44° Northeast 550 633 31,000  Climbing FlightAware
10:27PM 45.4920 -65.5830 43° Northeast 553 636 30,900 -120 Descending FlightAware
10:27PM 45.5640 -65.4860 43° Northeast 551 634 30,900  Level FlightAware
10:28PM 45.6310 -65.3940 44° Northeast 553 636 30,900  Level FlightAware
10:29PM 45.6970 -65.3050 43° Northeast 553 636 30,900  Level FlightAware
10:29PM 45.7510 -65.2310 44° Northeast 553 636 30,900  Level FlightAware
10:30PM 45.8240 -65.1330 43° Northeast 552 635 30,900  Level FlightAware
10:30PM 45.8810 -65.0560 43° Northeast 552 635 30,900  Level FlightAware
10:31PM 45.9400 -64.9770 43° Northeast 552 635 30,900  Level FlightAware
10:32PM 45.9980 -64.8990 43° Northeast 552 635 30,900  Level FlightAware
10:32PM 46.0560 -64.8220 43° Northeast 552 635 30,900  Level FlightAware
10:33PM 46.1130 -64.7450 43° Northeast 552 635 30,900  Level FlightAware
10:33PM 46.1710 -64.6660 43° Northeast 552 635 30,900  Level FlightAware
10:34PM 46.2250 -64.5930 43° Northeast 552 635 30,900  Level FlightAware
10:35PM 46.2830 -64.5160 43° Northeast 552 635 30,900  Level FlightAware
10:35PM 46.3400 -64.4390 43° Northeast 552 635 30,900  Level FlightAware
10:36PM 46.3970 -64.3620 43° Northeast 552 635 30,900  Level FlightAware
10:36PM 46.4540 -64.2840 43° Northeast 552 635 30,900  Level FlightAware
10:37PM 46.5110 -64.2070 43° Northeast 552 635 30,900  Level FlightAware
10:38PM 46.5680 -64.1290 43° Northeast 552 635 30,900  Level FlightAware
10:38PM 46.6250 -64.0520 43° Northeast 552 635 30,900  Level FlightAware
10:39PM 46.6830 -63.9740 43° Northeast 552 635 30,900  Level FlightAware
10:39PM 46.9000 -63.5833 43° Northeast 570 656 30,900  Level Moncton Center
10:40PM 47.0167 -63.4333 41° Northeast 570 656 30,900  Level Moncton Center
10:41PM 47.1333 -63.2667 44° Northeast 570 656 30,900  Level Moncton Center
10:42PM 47.2167 -63.0833 56° Northeast 570 656 30,900  Level Moncton Center
10:43PM 47.3333 -62.9167 44° Northeast 570 656 30,900  Level Moncton Center
10:44PM 47.4500 -62.7667 41° Northeast 570 656 30,900  Level Moncton Center
10:45PM 47.5667 -62.5833 47° Northeast 570 656 30,900  Level Moncton Center
10:46PM 47.6833 -62.4333 41° Northeast 570 656 30,900  Level Moncton Center
10:47PM 47.7833 -62.2500 51° Northeast 580 667 30,900  Level Moncton Center
10:48PM 47.9167 -62.0667 43° Northeast 580 667 30,900  Level Moncton Center
10:49PM 47.9833 -61.9500 49° Northeast 580 667 30,900  Level Gander Center
10:50PM 48.1000 -61.7833 44° Northeast 590 679 30,900  Level Gander Center
10:51PM 48.2000 -61.6000 51° Northeast 590 679 30,900  Level Gander Center
10:52PM 48.3167 -61.4333 44° Northeast 590 679 30,900  Level Gander Center
10:53PM 48.4333 -61.2500 46° Northeast 590 679 30,900 300 Level Gander Center
10:54PM 48.5333 -61.0833 48° Northeast 590 679 31,500 840 Climbing Gander Center
10:55PM 48.6667 -60.8833 45° Northeast 590 679 32,600 660 Climbing Gander Center
10:56PM 48.7667 -60.7000 50° Northeast 600 690 32,900  Climbing Gander Center
11:02PM 49.4880 -59.5520 50° Northeast 608 700 32,900  Level FlightAware
11:03PM 49.5500 -59.4460 48° Northeast 608 700 32,900  Level FlightAware
11:04PM 49.6510 -59.2740 48° Northeast 607 699 32,900  Level FlightAware
11:04PM 49.7070 -59.1770 48° Northeast 606 697 32,900  Level FlightAware
11:05PM 49.7900 -59.0330 48° Northeast 606 697 32,900  Level FlightAware
11:06PM 49.8480 -58.9340 48° Northeast 606 697 32,900  Level FlightAware
11:06PM 49.9040 -58.8380 48° Northeast 606 697 32,900  Level FlightAware
11:07PM 49.9630 -58.7360 48° Northeast 606 697 32,900  Level FlightAware
11:07PM 50.0570 -58.5670 49° Northeast 341 392 32,900  Level FlightAware
11:08PM 50.1210 -58.4530 49° Northeast 608 700 32,900  Level FlightAware
11:09PM 50.1810 -58.3300 53° Northeast 605 696 32,900  Level FlightAware
11:09PM 50.2460 -58.1790 56° Northeast 605 696 32,900  Level FlightAware
11:10PM 50.3010 -58.0530 56° Northeast 606 697 32,900  Level FlightAware
11:10PM 50.3450 -57.9530 55° Northeast 606 697 32,900  Level FlightAware
11:11PM 50.4060 -57.8170 55° Northeast 607 699 32,900  Level FlightAware
11:12PM 50.4780 -57.6560 55° Northeast 607 699 32,900  Level FlightAware
11:12PM 50.5300 -57.5430 54° Northeast 607 699 32,900  Level FlightAware
11:13PM 50.6050 -57.3750 55° Northeast 607 699 32,900  Level FlightAware
11:14PM 50.6550 -57.2650 54° Northeast 607 699 32,900  Level FlightAware
11:14PM 50.7060 -57.1550 54° Northeast 607 699 32,900  Level FlightAware
11:15PM 50.7560 -57.0450 54° Northeast 607 699 32,900  Level FlightAware
11:16PM 50.8070 -56.9360 53° Northeast 607 699 32,900  Level FlightAware
11:16PM 50.8570 -56.8250 54° Northeast 607 699 32,900  Level FlightAware
11:17PM 50.9090 -56.7120 54° Northeast 607 699 32,900  Level FlightAware
11:17PM 50.9610 -56.5990 54° Northeast 607 699 32,900  Level FlightAware
11:18PM 51.0120 -56.4880 54° Northeast 607 699 32,900  Level FlightAware
11:19PM 51.0620 -56.3780 54° Northeast 607 699 32,900  Level FlightAware
11:19PM 51.1120 -56.2670 54° Northeast 607 699 32,900  Level FlightAware
11:20PM 51.1630 -56.1560 54° Northeast 607 699 32,900  Level FlightAware
11:20PM 51.2130 -56.0450 54° Northeast 607 699 32,900  Level FlightAware
11:21PM 51.2640 -55.9340 54° Northeast 607 699 32,900  Level FlightAware
11:22PM 51.3160 -55.8200 54° Northeast 607 699 32,900  Level FlightAware
11:22PM 51.3660 -55.7090 54° Northeast 607 699 32,900  Level FlightAware
11:23PM 51.5333 -55.1000 54° Northeast 610 702 32,900  Level Gander Center
11:24PM 51.6333 -54.8333 59° Northeast 600 690 32,900  Level Gander Center
11:25PM 51.7167 -54.6333 56° Northeast 600 690 32,900 60 Level Gander Center
11:26PM 52.2167 -53.3667 68° East 606 697 33,000  Climbing ETMS Enhanced Traffic Management System
11:26PM 51.8000 -54.3833 68° East 600 690 32,900 -120 Descending Gander Center
11:27PM 51.9000 -54.1500 55° Northeast 600 690 32,900  Level Gander Center
11:28PM 51.9833 -53.9500 56° Northeast 600 690 32,900  Level Gander Center
11:29PM 52.0667 -53.6833 63° Northeast 610 702 32,900  Level Gander Center
11:30PM 52.1500 -53.4833 56° Northeast 600 690 32,900  Level Gander Center
11:31PM 52.2333 -53.2167 63° Northeast 600 690 32,900  Level Gander Center
11:32PM 52.3000 -52.9500 68° East 610 702 32,900  Level Gander Center
11:33PM 52.3667 -52.7000 66° East 600 690 32,900  Level Gander Center
11:34PM 52.4167 -52.4667 71° East 590 679 32,900  Level Gander Center
11:35PM 52.4833 -52.2000 68° East 600 690 32,900  Level Gander Center
11:36PM 52.5500 -51.9667 65° Northeast 590 679 32,900  Level Gander Center
11:37PM 52.5833 -51.7500 76° East 580 667 32,900  Level Gander Center
11:38PM 52.6500 -51.5000 66° East 590 679 32,900  Level Gander Center
11:39PM 52.6833 -51.2500 78° East 590 679 32,900  Level Gander Center
11:40PM 52.7500 -50.9833 67° East 590 679 32,900  Level Gander Center
11:41PM 52.8333 -50.7333 61° Northeast 590 679 32,900  Level Gander Center
11:43PM 52.9333 -50.2167 72° East 590 679 32,900  Level Gander Center
11:44PM 52.9667 -49.9833 77° East 590 679 32,900  Level Gander Center
11:45PM 53.0000 -50.0000 67° East 587 676 33,000  Climbing ETMS Enhanced Traffic Management System
11:52PM 53.4297 -48.2320 69° East 587 676 33,000  Level FlightAware Transoceanic
11:53PM 53.4889 -47.9766 69° East 587 676 33,000  Level FlightAware Transoceanic
11:54PM 53.5476 -47.7204 69° East 587 676 33,000  Level FlightAware Transoceanic
11:55PM 53.6057 -47.4635 69° East 587 676 33,000  Level FlightAware Transoceanic
11:56PM 53.6633 -47.2060 69° East 587 676 33,000  Level FlightAware Transoceanic
11:57PM 53.7203 -46.9477 70° East 587 676 33,000  Level FlightAware Transoceanic
11:58PM 53.7768 -46.6887 70° East 587 676 33,000  Level FlightAware Transoceanic
11:59PM 53.8327 -46.4291 70° East 587 676 33,000  Level FlightAware Transoceanic
12:00AM 53.8880 -46.1687 70° East 587 676 33,000  Level FlightAware Transoceanic
12:01AM 53.9428 -45.9076 70° East 587 676 33,000  Level FlightAware Transoceanic
12:02AM 53.9970 -45.6459 71° East 587 676 33,000  Level FlightAware Transoceanic
12:03AM 54.0507 -45.3835 71° East 587 676 33,000  Level FlightAware Transoceanic
12:04AM 54.1037 -45.1204 71° East 587 676 33,000  Level FlightAware Transoceanic
12:05AM 54.1562 -44.8567 71° East 587 676 33,000  Level FlightAware Transoceanic
12:06AM 54.2082 -44.5923 72° East 587 676 33,000  Level FlightAware Transoceanic
12:07AM 54.2595 -44.3272 72° East 587 676 33,000  Level FlightAware Transoceanic
12:08AM 54.3103 -44.0614 72° East 587 676 33,000  Level FlightAware Transoceanic
12:09AM 54.3604 -43.7951 72° East 587 676 33,000  Level FlightAware Transoceanic
12:10AM 54.4100 -43.5280 72° East 587 676 33,000  Level FlightAware Transoceanic
12:11AM 54.4590 -43.2603 73° East 587 676 33,000  Level FlightAware Transoceanic
12:12AM 54.5074 -42.9920 73° East 587 676 33,000  Level FlightAware Transoceanic
12:13AM 54.5552 -42.7231 73° East 587 676 33,000  Level FlightAware Transoceanic
12:14AM 54.6024 -42.4535 73° East 587 676 33,000  Level FlightAware Transoceanic
12:15AM 54.6490 -42.1833 74° East 587 676 33,000  Level FlightAware Transoceanic
12:16AM 54.6950 -41.9125 74° East 587 676 33,000  Level FlightAware Transoceanic
12:17AM 54.7404 -41.6410 74° East 587 676 33,000  Level FlightAware Transoceanic
12:18AM 54.7852 -41.3690 74° East 587 676 33,000  Level FlightAware Transoceanic
12:19AM 54.8294 -41.0964 74° East 587 676 33,000  Level FlightAware Transoceanic
12:20AM 54.8730 -40.8232 75° East 587 676 33,000  Level FlightAware Transoceanic
12:21AM 54.9159 -40.5494 75° East 587 676 33,000  Level FlightAware Transoceanic
12:22AM 54.9583 -40.2750 75° East 587 676 33,000  Level FlightAware Transoceanic
12:23AM 54.9965 -40.0232 75° East  Level FlightAware Approximate
12:24AM 55.0342 -39.7710 75° East  Level FlightAware Approximate
12:25AM 55.0085 -39.7879 86° East  Level FlightAware Approximate
12:26AM 55.0185 -39.5278 86° East  Level FlightAware Approximate
12:27AM 55.0279 -39.2676 86° East  Level FlightAware Approximate
12:28AM 55.0367 -39.0073 87° East  Level FlightAware Approximate
12:28AM 55.0000 -40.0000 86° East 542 624 33,000  Level ETMS Enhanced Traffic Management System
12:29AM 55.0450 -38.7469 87° East  Level FlightAware Approximate
12:30AM 55.0527 -38.4864 87° East  Level FlightAware Approximate
12:31AM 55.0599 -38.2257 87° East  Level FlightAware Approximate
12:32AM 55.0665 -37.9650 87° East  Level FlightAware Approximate
12:33AM 55.0726 -37.7042 88° East  Level FlightAware Approximate
12:34AM 55.0844 -37.1082 88° East 542 624 33,000  Level FlightAware Transoceanic
12:35AM 55.0886 -36.8448 88° East 542 624 33,000  Level FlightAware Transoceanic
12:36AM 55.0923 -36.5814 89° East 542 624 33,000  Level FlightAware Transoceanic
12:37AM 55.0955 -36.3179 89° East 542 624 33,000  Level FlightAware Transoceanic
12:38AM 55.0980 -36.0544 89° East 542 624 33,000  Level FlightAware Transoceanic
12:39AM 55.1000 -35.7908 89° East 542 624 33,000  Level FlightAware Transoceanic
12:40AM 55.1014 -35.5272 90° East 542 624 33,000  Level FlightAware Transoceanic
12:41AM 55.1023 -35.2636 90° East 542 624 33,000  Level FlightAware Transoceanic
12:42AM 55.1026 -35.0000 90° East 542 624 33,000  Level FlightAware Transoceanic
12:43AM 55.1023 -34.7364 90° East 542 624 33,000  Level FlightAware Transoceanic
12:44AM 55.1014 -34.4728 90° East 542 624 33,000  Level FlightAware Transoceanic
12:45AM 55.1000 -34.2092 91° East 542 624 33,000  Level FlightAware Transoceanic
12:46AM 55.0980 -33.9456 91° East 542 624 33,000  Level FlightAware Transoceanic
12:47AM 55.0955 -33.6821 91° East 542 624 33,000  Level FlightAware Transoceanic
12:48AM 55.0923 -33.4186 91° East 542 624 33,000  Level FlightAware Transoceanic
12:49AM 55.0886 -33.1552 92° East 542 624 33,000  Level FlightAware Transoceanic
12:50AM 55.0844 -32.8918 92° East 542 624 33,000  Level FlightAware Transoceanic
12:51AM 55.0795 -32.6284 92° East 542 624 33,000  Level FlightAware Transoceanic
12:52AM 55.0741 -32.3652 92° East 542 624 33,000  Level FlightAware Transoceanic
12:53AM 55.0682 -32.1020 92° East 542 624 33,000  Level FlightAware Transoceanic
12:54AM 55.0616 -31.8389 93° East 542 624 33,000  Level FlightAware Transoceanic
12:55AM 55.0545 -31.5758 93° East 542 624 33,000  Level FlightAware Transoceanic
12:56AM 55.0468 -31.3129 93° East 542 624 33,000  Level FlightAware Transoceanic
12:57AM 55.0386 -31.0501 93° East 542 624 33,000  Level FlightAware Transoceanic
12:58AM 55.0298 -30.7874 93° East 542 624 33,000  Level FlightAware Transoceanic
12:59AM 55.0204 -30.5248 94° East 542 624 33,000  Level FlightAware Transoceanic
01:00AM 55.0105 -30.2623 94° East 542 624 33,000  Level FlightAware Transoceanic
01:01AM 55.0001 -30.0024 94° East  Level FlightAware Approximate
01:02AM 54.9888 -29.7426 94° East  Level FlightAware Approximate
01:03AM 55.0102 -29.7447 86° East  Level FlightAware Approximate
01:04AM 55.0200 -29.4846 86° East  Level FlightAware Approximate
01:04AM 55.0000 -30.0000 86° East 529 609 33,000  Level ETMS Enhanced Traffic Management System
01:05AM 55.0293 -29.2244 86° East  Level FlightAware Approximate
01:06AM 55.0380 -28.9645 87° East  Level FlightAware Approximate
01:07AM 55.0461 -28.7045 87° East  Level FlightAware Approximate
01:08AM 55.0537 -28.4444 87° East  Level FlightAware Approximate
01:09AM 55.0608 -28.1842 87° East  Level FlightAware Approximate
01:10AM 55.0728 -27.6956 88° East 529 609 33,000  Level FlightAware Transoceanic
01:11AM 55.0782 -27.4391 88° East 529 609 33,000  Level FlightAware Transoceanic
01:12AM 55.0831 -27.1825 88° East 529 609 33,000  Level FlightAware Transoceanic
01:13AM 55.0874 -26.9259 88° East 529 609 33,000  Level FlightAware Transoceanic
01:14AM 55.0912 -26.6692 89° East 529 609 33,000  Level FlightAware Transoceanic
01:15AM 55.0944 -26.4125 89° East 529 609 33,000  Level FlightAware Transoceanic
01:16AM 55.0971 -26.1557 89° East 529 609 33,000  Level FlightAware Transoceanic
01:17AM 55.0993 -25.8989 89° East 529 609 33,000  Level FlightAware Transoceanic
01:18AM 55.1009 -25.6421 89° East 529 609 33,000  Level FlightAware Transoceanic
01:19AM 55.1020 -25.3853 90° East 529 609 33,000  Level FlightAware Transoceanic
01:20AM 55.1025 -25.1284 90° East 529 609 33,000  Level FlightAware Transoceanic
01:21AM 55.1025 -24.8716 90° East 529 609 33,000  Level FlightAware Transoceanic
01:22AM 55.1020 -24.6147 90° East 529 609 33,000  Level FlightAware Transoceanic
01:23AM 55.1009 -24.3579 91° East 529 609 33,000  Level FlightAware Transoceanic
01:24AM 55.0993 -24.1011 91° East 529 609 33,000  Level FlightAware Transoceanic
01:25AM 55.0971 -23.8443 91° East 529 609 33,000  Level FlightAware Transoceanic
01:26AM 55.0944 -23.5875 91° East 529 609 33,000  Level FlightAware Transoceanic
01:27AM 55.0912 -23.3308 91° East 529 609 33,000  Level FlightAware Transoceanic
01:28AM 55.0874 -23.0741 92° East 529 609 33,000  Level FlightAware Transoceanic
01:29AM 55.0831 -22.8175 92° East 529 609 33,000  Level FlightAware Transoceanic
01:30AM 55.0782 -22.5609 92° East 529 609 33,000  Level FlightAware Transoceanic
01:31AM 55.0728 -22.3044 92° East 529 609 33,000  Level FlightAware Transoceanic
01:32AM 55.0669 -22.0480 92° East 529 609 33,000  Level FlightAware Transoceanic
01:33AM 55.0604 -21.7917 93° East 529 609 33,000  Level FlightAware Transoceanic
01:34AM 55.0534 -21.5354 93° East 529 609 33,000  Level FlightAware Transoceanic
01:35AM 55.0458 -21.2792 93° East 529 609 33,000  Level FlightAware Transoceanic
01:36AM 55.0377 -21.0231 93° East 529 609 33,000  Level FlightAware Transoceanic
01:37AM 55.0291 -20.7672 93° East 529 609 33,000  Level FlightAware Transoceanic
01:38AM 55.0199 -20.5113 94° East 529 609 33,000  Level FlightAware Transoceanic
01:39AM 55.0102 -20.2556 94° East 529 609 33,000  Level FlightAware Transoceanic
01:40AM 54.9999 -19.9986 94° East  Level FlightAware Approximate
01:41AM 54.9997 -19.9973 102° East  Level FlightAware Approximate
01:42AM 54.9679 -19.7459 102° East  Level FlightAware Approximate
01:43AM 54.9356 -19.4948 103° East  Level FlightAware Approximate
01:44AM 54.9028 -19.2442 103° East  Level FlightAware Approximate
01:45AM 54.8694 -18.9940 103° East  Level FlightAware Approximate
01:46AM 54.8356 -18.7442 103° East  Level FlightAware Approximate
01:47AM 54.8013 -18.4948 103° East  Level FlightAware Approximate
01:48AM 54.7664 -18.2458 104° East  Level FlightAware Approximate
01:49AM 54.7310 -17.9973 104° East  Level FlightAware Approximate
01:50AM 54.6951 -17.7492 104° East  Level FlightAware Approximate
01:51AM 54.6588 -17.5015 104° East  Level FlightAware Approximate
01:52AM 54.6219 -17.2543 104° East  Level FlightAware Approximate
01:53AM 54.5845 -17.0076 105° East  Level FlightAware Approximate
01:54AM 54.5481 -16.7606 104° East  Level FlightAware Approximate
01:55AM 54.5112 -16.5141 104° East  Level FlightAware Approximate
01:56AM 54.4738 -16.2680 105° East  Level FlightAware Approximate
01:57AM 54.4359 -16.0224 105° East  Level FlightAware Approximate
01:58AM 54.3975 -15.7772 105° East  Level FlightAware Approximate
01:59AM 54.3586 -15.5325 105° East  Level FlightAware Approximate
02:00AM 54.3193 -15.2882 105° East  Level FlightAware Approximate
02:01AM 54.2794 -15.0445 106° East  Level FlightAware Approximate
02:02AM 54.2391 -14.8012 106° East  Level FlightAware Approximate
02:03AM 54.1982 -14.5583 106° East  Level FlightAware Approximate
02:04AM 54.1569 -14.3160 106° East  Level FlightAware Approximate
02:04AM 53.9030 -13.9220 105° East 546 628 33,000  Level FlightAware
02:05AM 54.1152 -14.0740 105° East  Level FlightAware Approximate
02:05AM 53.8750 -13.7570 106° East 548 631 33,700  Level FlightAware
02:05AM 53.8550 -13.6350 105° East 549 632 34,300 1,080 Climbing FlightAware
02:06AM 53.8290 -13.4860 106° East 550 633 34,900 480 Climbing FlightAware
02:06AM 53.8010 -13.3210 106° East 549 632 34,900  Level FlightAware
02:07AM 53.7760 -13.1810 107° East 547 629 34,900  Level FlightAware
02:07AM 53.7550 -13.0620 107° East 544 626 34,900  Level FlightAware
02:08AM 53.7280 -12.9080 106° East 541 623 34,900  Level FlightAware
02:09AM 53.7000 -12.7480 106° East 540 621 34,900  Level FlightAware
02:09AM 53.6780 -12.6290 107° East 540 621 34,900  Level FlightAware
02:10AM 53.6520 -12.4860 107° East 542 624 34,900  Level FlightAware
02:10AM 53.6240 -12.3290 107° East 544 626 34,900  Level FlightAware
02:11AM 53.5970 -12.1840 107° East 544 626 34,900  Level FlightAware
02:11AM 53.5740 -12.0600 107° East 543 625 34,900  Level FlightAware
02:12AM 53.5440 -11.9000 107° East 544 626 34,900  Level FlightAware
02:13AM 53.5210 -11.7790 108° East 544 626 34,900  Level FlightAware
02:13AM 53.4950 -11.6410 108° East 544 626 34,900  Level FlightAware
02:14AM 53.4630 -11.4760 108° East 542 624 34,900  Level FlightAware
02:14AM 53.4370 -11.3410 108° East 543 625 34,900  Level FlightAware
02:15AM 53.4130 -11.2150 108° East 543 625 34,900  Level FlightAware
02:16AM 53.3860 -11.0790 108° East 543 625 34,900  Level FlightAware
02:16AM 53.3540 -10.9150 108° East 543 625 34,900  Level FlightAware
02:17AM 53.3310 -10.7980 108° East 543 625 34,900  Level FlightAware
02:17AM 53.3020 -10.6560 109° East 542 624 34,900  Level FlightAware
02:18AM 53.2700 -10.4990 109° East 542 624 34,900  Level FlightAware
02:19AM 53.2410 -10.3570 109° East 544 626 34,900  Level FlightAware
02:19AM 53.2180 -10.2420 108° East 544 626 34,900  Level FlightAware
02:20AM 53.1890 -10.1020 109° East 544 626 34,900  Level FlightAware
02:20AM 53.1590 -9.9600 109° East 544 626 34,900  Level FlightAware
02:21AM 53.1310 -9.8240 109° East 545 627 34,900  Level FlightAware
02:21AM 53.0980 -9.6670 109° East 545 627 34,900  Level FlightAware
02:22AM 53.0720 -9.5480 110° East 543 625 34,900  Level FlightAware
02:23AM 53.0420 -9.4080 110° East 543 625 34,900  Level FlightAware
02:23AM 53.0130 -9.2700 109° East 543 625 34,900  Level FlightAware
02:24AM 52.9780 -9.1110 110° East 543 625 34,900  Level FlightAware
02:24AM 52.9530 -8.9970 110° East 542 624 34,900  Level FlightAware
02:25AM 52.9220 -8.8560 110° East 541 623 34,900  Level FlightAware
02:26AM 52.8880 -8.7030 110° East 541 623 34,900  Level FlightAware
02:26AM 52.8610 -8.5830 110° East 542 624 34,900  Level FlightAware
02:27AM 52.8310 -8.4500 110° East 542 624 34,900  Level FlightAware
02:27AM 52.7960 -8.2920 110° East 544 626 34,900  Level FlightAware
02:28AM 52.7690 -8.1770 110° East 544 626 34,900  Level FlightAware
02:28AM 52.7594 -8.1484 110° East 488 562 34,900  Level FlightAware UK
02:28AM 52.7327 -8.0319 110° East 490 564 34,900  Level FlightAware UK
02:28AM 52.7380 -8.0410 110° East 544 626 34,900  Level FlightAware
02:29AM 52.7070 -7.9050 111° Southeast 545 627 34,900  Level FlightAware
02:30AM 52.6700 -7.7480 111° Southeast 547 629 34,900  Level FlightAware
02:30AM 52.6390 -7.6170 111° Southeast 547 629 34,900  Level FlightAware
02:31AM 52.6110 -7.4980 111° Southeast 546 628 34,900  Level FlightAware
02:31AM 52.5790 -7.3640 111° Southeast 547 629 34,900  Level FlightAware
02:31AM 52.5696 -7.3338 111° Southeast 492 566 34,900  Level FlightAware UK
02:32AM 52.5419 -7.2171 111° Southeast 492 566 34,900  Level FlightAware UK
02:32AM 52.5420 -7.2080 111° Southeast 548 631 34,900  Level FlightAware
02:33AM 52.5090 -7.0700 111° Southeast 549 632 34,900  Level FlightAware
02:33AM 52.4780 -6.9410 111° Southeast 551 634 34,900  Level FlightAware
02:34AM 52.4480 -6.8200 112° Southeast 556 640 34,900  Level FlightAware
02:34AM 52.4120 -6.6740 112° Southeast 557 641 34,900  Level FlightAware
02:35AM 52.3715 -6.5151 112° Southeast 496 571 34,900  Level FlightAware UK
02:35AM 52.3760 -6.5280 112° Southeast 557 641 34,900  Level FlightAware
02:35AM 52.3424 -6.3979 112° Southeast 494 568 34,900  Level FlightAware UK
02:35AM 52.3410 -6.3870 112° Southeast 557 641 34,900  Level FlightAware
02:36AM 52.3100 -6.2640 112° Southeast 558 642 34,900  Level FlightAware
02:37AM 52.2710 -6.1070 112° Southeast 559 643 34,900  Level FlightAware
02:37AM 52.2390 -5.9810 112° Southeast 559 643 34,900  Level FlightAware
02:38AM 52.2040 -5.8400 112° Southeast 558 642 34,900  Level FlightAware
02:38AM 52.1740 -5.6922 112° Southeast 494 568 34,900  Level FlightAware UK
02:38AM 52.1770 -5.6960 112° Southeast 556 640 34,900  Level FlightAware
02:39AM 52.1570 -5.5580 103° East 555 639 34,900  Level FlightAware
02:40AM 52.1380 -5.4230 103° East 555 639 34,900  Level FlightAware
02:40AM 52.1180 -5.2730 102° East 556 640 34,900  Level FlightAware
02:41AM 52.0980 -5.1260 102° East 555 639 34,900  Level FlightAware
02:41AM 52.0790 -4.9950 103° East 555 639 34,900  Level FlightAware
02:42AM 52.0590 -4.8500 103° East 556 640 34,900  Level FlightAware
02:42AM 52.0370 -4.6980 103° East 556 640 34,900  Level FlightAware
02:43AM 52.0190 -4.5670 103° East 557 641 34,900  Level FlightAware
02:44AM 51.9980 -4.4220 103° East 557 641 34,900  Level FlightAware
02:44AM 51.9760 -4.2750 104° East 558 642 34,900  Level FlightAware
02:45AM 51.9563 -4.1290 104° East 492 566 34,900  Level FlightAware UK
02:45AM 51.9550 -4.1270 104° East 559 643 34,900  Level FlightAware
02:45AM 51.9330 -3.9810 104° East 559 643 34,900  Level FlightAware
02:46AM 51.9110 -3.8330 103° East 558 642 34,900  Level FlightAware
02:47AM 51.8930 -3.7140 104° East 558 642 34,900  Level FlightAware
02:47AM 51.8690 -3.5600 104° East 558 642 34,900  Level FlightAware
02:48AM 51.8460 -3.4120 104° East 559 643 34,900  Level FlightAware
02:48AM 51.8286 -3.2763 104° East 490 564 34,900  Level FlightAware UK
02:48AM 51.8260 -3.2840 104° East 560 644 34,900  Level FlightAware
02:49AM 51.8040 -3.1390 104° East 560 644 34,900 60 Level FlightAware
02:49AM 51.7922 -3.0651 104° East 560 644 35,000  Climbing FlightAware ADS-B
02:50AM 51.7708 -2.9314 104° East 564 649 34,900 -120 Descending FlightAware ADS-B
02:50AM 51.7476 -2.7860 104° East 564 649 34,900 60 Level FlightAware ADS-B
02:51AM 51.7267 -2.6553 104° East 564 649 35,000  Climbing FlightAware ADS-B
02:51AM 51.7077 -2.5225 103° East 563 648 34,900 -120 Descending FlightAware ADS-B
02:52AM 51.6930 -2.3987 101° East 562 647 34,900  Level FlightAware ADS-B
02:52AM 51.6785 -2.2647 100° East 562 647 34,900  Level FlightAware ADS-B
02:53AM 51.6642 -2.1282 100° East 561 646 34,900  Level FlightAware ADS-B
02:54AM 51.6511 -2.0017 99° East 562 647 34,900  Level FlightAware ADS-B
02:54AM 51.6379 -1.8747 99° East 563 648 34,900  Level FlightAware ADS-B
02:55AM 51.6250 -1.7493 99° East 564 649 34,900  Level FlightAware ADS-B
02:55AM 51.6111 -1.6163 99° East 565 650 34,900  Level FlightAware ADS-B
02:56AM 51.5980 -1.4912 100° East 565 650 34,900  Level FlightAware ADS-B
02:56AM 51.5847 -1.3641 100° East 563 648 34,900  Level FlightAware ADS-B
02:57AM 51.5714 -1.2395 100° East 564 649 34,900  Level FlightAware ADS-B
02:57AM 51.5581 -1.1158 100° East 564 649 34,900  Level FlightAware ADS-B
02:58AM 51.5442 -0.9875 100° East 566 651 34,900  Level FlightAware ADS-B
02:58AM 51.5303 -0.8610 100° East 567 652 34,900  Level FlightAware ADS-B
02:59AM 51.5160 -0.7335 100° East 567 652 34,900  Level FlightAware ADS-B
02:59AM 51.5007 -0.5984 100° East 568 654 34,900  Level FlightAware ADS-B
03:00AM 51.4866 -0.4736 100° East 567 652 34,900  Level FlightAware ADS-B
03:00AM 51.4723 -0.3474 100° East 564 649 34,900 60 Level FlightAware ADS-B
03:01AM 51.4572 -0.2162 100° East 563 648 35,000 60 Climbing FlightAware ADS-B
03:01AM 51.4413 -0.0823 101° East 564 649 35,000 -120 Level FlightAware ADS-B
03:02AM 51.4268 0.0409 101° East 563 648 34,900 -120 Descending FlightAware ADS-B
03:02AM 51.4103 0.1780 101° East 561 646 34,900  Level FlightAware ADS-B
03:03AM 51.3920 0.3290 101° East 561 646 34,900  Level FlightAware
03:03AM 51.3831 0.4039 101° East 561 646 34,900  Level FlightAware ADS-B
03:04AM 51.3682 0.5272 101° East 563 648 34,900  Level FlightAware ADS-B
03:04AM 51.3496 0.6772 101° East 565 650 34,900  Level FlightAware ADS-B
03:05AM 51.3325 0.8150 101° East 566 651 34,900  Level FlightAware ADS-B
03:05AM 51.3166 0.9420 101° East 566 651 34,900  Level FlightAware ADS-B
03:06AM 51.2911 1.1423 101° East 567 652 34,900  Level FlightAware ADS-B
03:07AM 51.2670 1.3280 102° East 568 654 34,900  Level FlightAware
03:08AM 51.2480 1.4770 101° East 570 656 34,900 300 Level FlightAware
03:08AM 51.2280 1.6280 102° East 573 659 35,300 1,020 Climbing FlightAware
03:09AM 51.2070 1.7850 102° East 571 657 36,200 1,380 Climbing FlightAware
03:09AM 51.1900 1.9130 102° East 563 648 36,900 780 Climbing FlightAware
03:10AM 51.1750 2.0260 102° East 561 646 37,000  Climbing FlightAware
03:10AM 51.1560 2.1630 102° East 560 644 36,900 -120 Descending FlightAware
03:11AM 51.1417 2.3182 102° East 490 564 36,900  Level FlightAware UK
03:11AM 51.1360 2.3080 102° East 559 643 36,900  Level FlightAware
03:12AM 51.1214 2.4634 102° East 490 564 36,900  Level FlightAware UK
03:12AM 51.1160 2.4510 102° East 559 643 36,900  Level FlightAware
03:12AM 51.1010 2.6076 102° East 488 562 36,900  Level FlightAware UK
03:12AM 51.0960 2.5950 102° East 559 643 36,900  Level FlightAware
03:13AM 51.0760 2.7120 105° East 562 647 36,900  Level FlightAware
03:13AM 51.0450 2.8790 106° East 561 646 36,900  Level FlightAware
03:14AM 51.0210 3.0170 105° East 564 649 36,900  Level FlightAware
03:15AM 50.9930 3.1430 109° East 571 657 36,900  Level FlightAware
03:15AM 50.9550 3.2760 114° Southeast 579 666 36,900  Level FlightAware
03:16AM 50.9060 3.4190 118° Southeast 580 667 36,900  Level FlightAware
03:16AM 50.8650 3.5390 118° Southeast 580 667 36,900  Level FlightAware
03:17AM 50.8170 3.6740 119° Southeast 581 669 36,900  Level FlightAware
03:18AM 50.7690 3.8110 119° Southeast 583 671 36,900  Level FlightAware
03:18AM 50.7340 3.9160 118° Southeast 583 671 36,900  Level FlightAware
03:19AM 50.6940 4.0590 114° Southeast 583 671 36,900  Level FlightAware
03:19AM 50.6680 4.1790 114° Southeast 583 671 36,900  Level FlightAware
03:19AM 50.6661 4.2008 114° Southeast 494 568 36,900  Level FlightAware UK
03:20AM 50.6440 4.3232 114° Southeast 494 568 36,900  Level FlightAware UK
03:20AM 50.6400 4.3290 114° Southeast 581 669 36,900  Level FlightAware
03:20AM 50.6120 4.4760 107° East 581 669 36,900  Level FlightAware
03:21AM 50.5870 4.6100 106° East 580 667 36,900  Level FlightAware
03:21AM 50.5600 4.7510 107° East 579 666 36,900  Level FlightAware
03:22AM 50.5310 4.9050 106° East 577 664 36,900  Level FlightAware
03:23AM 50.5060 5.0350 107° East 575 662 36,900  Level FlightAware
03:23AM 50.4810 5.1670 107° East 574 661 36,900  Level FlightAware
03:24AM 50.4500 5.3230 107° East 574 661 36,900  Level FlightAware
03:24AM 50.4230 5.4650 107° East 575 662 36,900  Level FlightAware
03:25AM 50.3990 5.5890 107° East 576 663 36,900  Level FlightAware
03:26AM 50.3700 5.7320 108° East 578 665 36,900  Level FlightAware
03:26AM 50.3410 5.8770 107° East 579 666 36,900  Level FlightAware
03:27AM 50.3140 6.0140 107° East 579 666 36,900  Level FlightAware
03:27AM 50.2870 6.1450 108° East 579 666 36,900  Level FlightAware
03:28AM 50.2580 6.2900 107° East 576 663 36,900  Level FlightAware
03:28AM 50.2280 6.4350 108° East 572 658 36,900  Level FlightAware
03:29AM 50.2000 6.5720 108° East 570 656 36,900  Level FlightAware
03:30AM 50.1730 6.7000 108° East 567 652 36,900  Level FlightAware
03:30AM 50.1440 6.8390 108° East 563 648 36,900  Level FlightAware
03:31AM 50.1150 6.9740 108° East 561 646 36,900  Level FlightAware
03:31AM 50.0860 7.1120 108° East 558 642 36,900  Level FlightAware
03:32AM 50.0610 7.2310 108° East 556 640 36,900  Level FlightAware
03:33AM 50.0300 7.3730 109° East 553 636 36,900  Level FlightAware
03:33AM 50.0010 7.5060 109° East 550 633 36,900  Level FlightAware
03:34AM 49.9810 7.6020 108° East 547 629 36,900  Level FlightAware
03:34AM 49.9450 7.7650 109° East 543 625 36,900  Level FlightAware
03:35AM 49.9230 7.8640 109° East 541 623 36,900  Level FlightAware
03:35AM 49.8930 7.9980 109° East 539 620 36,900  Level FlightAware
03:36AM 49.8640 8.1300 109° East 538 619 36,900  Level FlightAware
03:37AM 49.8390 8.2400 109° East 541 623 36,900  Level FlightAware
03:37AM 49.8090 8.3570 112° Southeast 545 627 36,900  Level FlightAware
03:37AM 49.7890 8.4030 124° Southeast 549 632 36,900  Level FlightAware
03:38AM 49.7660 8.4400 134° Southeast 551 634 36,900  Level FlightAware
03:38AM 49.7220 8.4920 143° Southeast 550 633 36,900  Level FlightAware
03:38AM 49.6380 8.5560 154° Southeast 548 631 36,900  Level FlightAware
03:39AM 49.5550 8.6150 155° Southeast 546 628 36,900  Level FlightAware
03:40AM 49.4440 8.6930 155° Southeast 547 629 36,900  Level FlightAware
03:40AM 49.3590 8.7520 156° South 548 631 36,900  Level FlightAware
03:41AM 49.2800 8.8060 156° South 549 632 36,900  Level FlightAware
03:42AM 49.1900 8.8690 155° Southeast 550 633 36,900  Level FlightAware
03:42AM 49.1120 8.9230 156° South 550 633 36,900  Level FlightAware
03:43AM 49.0220 8.9840 156° South 551 634 36,900  Level FlightAware
03:43AM 48.9440 9.0380 156° South 552 635 36,900  Level FlightAware
03:44AM 48.8460 9.1050 156° South 554 638 36,900  Level FlightAware
03:45AM 48.7770 9.1520 156° South 555 639 36,900  Level FlightAware
03:45AM 48.6970 9.2060 156° South 556 640 36,900  Level FlightAware
03:46AM 48.6070 9.2630 157° South 555 639 36,900  Level FlightAware
03:46AM 48.5210 9.3130 159° South 554 638 36,900  Level FlightAware
03:47AM 48.4410 9.3580 160° South 554 638 36,900  Level FlightAware
03:48AM 48.3530 9.4070 160° South 553 636 36,900  Level FlightAware
03:48AM 48.2730 9.4610 156° South 557 641 36,900  Level FlightAware
03:49AM 48.2120 9.5260 145° Southeast 558 642 36,900  Level FlightAware
03:49AM 48.1410 9.6180 139° Southeast 557 641 36,900  Level FlightAware
03:50AM 48.0780 9.7000 139° Southeast 557 641 36,900  Level FlightAware
03:50AM 48.0080 9.7820 142° Southeast 556 640 36,900  Level FlightAware
03:51AM 47.9240 9.8630 147° Southeast 556 640 36,900  Level FlightAware
03:52AM 47.8580 9.9260 147° Southeast 555 639 36,900  Level FlightAware
03:52AM 47.7780 10.0050 146° Southeast 555 639 36,900  Level FlightAware
03:53AM 47.7060 10.0760 146° Southeast 554 638 36,900  Level FlightAware
03:53AM 47.6360 10.1450 146° Southeast 553 636 36,900  Level FlightAware
03:54AM 47.5580 10.2230 146° Southeast 549 632 36,900  Level FlightAware
03:54AM 47.4830 10.2980 146° Southeast 546 628 36,900  Level FlightAware
03:55AM 47.4080 10.3720 146° Southeast 543 625 36,900  Level FlightAware
03:56AM 47.3410 10.4370 147° Southeast 540 621 36,900  Level FlightAware
03:56AM 47.2630 10.5140 146° Southeast 537 618 36,900  Level FlightAware
03:57AM 47.1910 10.5840 147° Southeast 535 616 36,900  Level FlightAware
03:57AM 47.1280 10.6450 147° Southeast 535 616 36,900  Level FlightAware
03:58AM 47.0530 10.7140 148° Southeast 532 612 36,900  Level FlightAware
03:59AM 46.9710 10.7700 155° Southeast 528 608 36,900  Level FlightAware
03:59AM 46.8830 10.8200 159° South 526 605 36,900  Level FlightAware
04:00AM 46.8170 10.8580 158° South 530 610 36,900  Level FlightAware
04:00AM 46.7700 10.9000 149° Southeast 535 616 36,900 60 Level FlightAware
04:01AM 46.6990 10.9740 144° Southeast 536 617 37,000  Climbing FlightAware
04:01AM 46.6310 11.0300 151° Southeast 532 612 36,900 -120 Descending FlightAware
04:02AM 46.5420 11.0890 155° Southeast 531 611 36,900  Level FlightAware
04:02AM 46.4560 11.1450 156° South 531 611 36,900  Level FlightAware
04:03AM 46.3840 11.1920 156° South 529 609 36,900  Level FlightAware
04:04AM 46.3040 11.2430 156° South 526 605 36,900  Level FlightAware
04:04AM 46.2070 11.3060 156° South 534 615 36,900  Level FlightAware
04:05AM 46.1330 11.3530 156° South 534 615 36,900  Level FlightAware
04:05AM 46.0520 11.4060 156° South 534 615 36,900  Level FlightAware
04:06AM 45.9740 11.4560 156° South 532 612 36,900  Level FlightAware
04:07AM 45.8930 11.5080 156° South 532 612 36,900  Level FlightAware
04:07AM 45.8180 11.5560 156° South 534 615 36,900  Level FlightAware
04:08AM 45.7370 11.6060 157° South 536 617 36,900  Level FlightAware
04:08AM 45.6950 11.6380 152° Southeast 545 627 36,900  Level FlightAware
04:08AM 45.6630 11.6770 140° Southeast 552 635 36,900  Level FlightAware
04:09AM 45.6430 11.7140 128° Southeast 556 640 36,900  Level FlightAware
04:09AM 45.6090 11.8360 112° Southeast 558 642 36,900  Level FlightAware
04:10AM 45.5840 11.9580 106° East 556 640 36,900 60 Level FlightAware
04:10AM 45.5580 12.0830 107° East 556 640 37,000  Climbing FlightAware
04:11AM 45.5340 12.2020 106° East 559 643 36,900 -120 Descending FlightAware
04:12AM 45.5110 12.3130 106° East 560 644 36,900  Level FlightAware
04:12AM 45.4800 12.4620 106° East 559 643 36,900  Level FlightAware
04:13AM 45.4530 12.5870 107° East 559 643 36,900  Level FlightAware
04:13AM 45.4240 12.7220 107° East 559 643 36,900  Level FlightAware
04:14AM 45.3950 12.8550 107° East 558 642 36,900  Level FlightAware
04:15AM 45.3710 12.9660 107° East 557 641 36,900  Level FlightAware
04:15AM 45.3340 13.1060 111° Southeast 552 635 36,900  Level FlightAware
04:16AM 45.2890 13.2150 120° Southeast 549 632 36,900  Level FlightAware
04:16AM 45.2380 13.3160 126° Southeast 547 629 36,900  Level FlightAware
04:17AM 45.1840 13.4250 125° Southeast 545 627 36,900  Level FlightAware
04:18AM 45.1310 13.5310 125° Southeast 545 627 36,900  Level FlightAware
04:18AM 45.0740 13.6430 126° Southeast 543 625 36,900  Level FlightAware
04:19AM 45.0130 13.7630 126° Southeast 540 621 36,900  Level FlightAware
04:20AM 44.9570 13.8710 126° Southeast 536 617 36,900  Level FlightAware
04:20AM 44.8970 13.9870 126° Southeast 536 617 36,900  Level FlightAware
04:21AM 44.8440 14.0910 126° Southeast 542 624 36,900  Level FlightAware
04:22AM 44.7880 14.2000 126° Southeast 541 623 36,900  Level FlightAware
04:22AM 44.7300 14.3110 126° Southeast 541 623 36,900  Level FlightAware
04:23AM 44.6630 14.4400 126° Southeast 544 626 36,900  Level FlightAware
04:24AM 44.6180 14.5260 126° Southeast 545 627 36,900  Level FlightAware
04:24AM 44.5540 14.6490 126° Southeast 544 626 36,900  Level FlightAware
04:25AM 44.5000 14.7520 126° Southeast 514 592 36,900  Level FlightAware
04:25AM 44.4430 14.8590 127° Southeast 545 627 36,900  Level FlightAware
04:26AM 44.3930 14.9530 127° Southeast 544 626 36,900  Level FlightAware
04:26AM 44.3500 15.0350 126° Southeast 544 626 36,900  Level FlightAware
04:27AM 44.2940 15.1390 127° Southeast 542 624 36,900  Level FlightAware
04:28AM 44.2300 15.2600 126° Southeast 541 623 36,900  Level FlightAware
04:28AM 44.1780 15.3580 126° Southeast 539 620 36,900  Level FlightAware
04:29AM 44.1240 15.4570 127° Southeast 536 617 36,900  Level FlightAware
04:30AM 44.0740 15.5510 126° Southeast 533 613 36,900 60 Level FlightAware
04:30AM 44.0170 15.6560 127° Southeast 524 603 37,000  Climbing FlightAware
04:31AM 43.9640 15.7530 127° Southeast 522 601 36,900 -120 Descending FlightAware
04:31AM 43.9130 15.8470 127° Southeast 521 600 36,900  Level FlightAware
04:32AM 43.8620 15.9410 127° Southeast 522 601 36,900  Level FlightAware
04:33AM 43.8030 16.0480 127° Southeast 520 598 36,900  Level FlightAware
04:33AM 43.7440 16.1560 127° Southeast 518 596 36,900  Level FlightAware
04:34AM 43.7010 16.2330 128° Southeast 516 594 36,900  Level FlightAware
04:34AM 43.6520 16.3220 127° Southeast 516 594 36,900  Level FlightAware
04:35AM 43.6010 16.4140 127° Southeast 512 589 36,900 60 Level FlightAware
04:36AM 43.5480 16.5100 127° Southeast 511 588 37,000  Climbing FlightAware
04:36AM 43.4960 16.6030 128° Southeast 513 590 36,900 -120 Descending FlightAware
04:37AM 43.4410 16.7030 127° Southeast 513 590 36,900  Level FlightAware
04:37AM 43.3900 16.7940 128° Southeast 514 592 36,900  Level FlightAware
04:38AM 43.3440 16.8760 128° Southeast 513 590 36,900  Level FlightAware
04:38AM 43.2940 16.9650 128° Southeast 514 592 36,900  Level FlightAware
04:39AM 43.2410 17.0600 127° Southeast 515 593 36,900  Level FlightAware
04:40AM 43.1810 17.1650 128° Southeast 520 598 36,900  Level FlightAware
04:40AM 43.1280 17.2580 128° Southeast 522 601 36,900  Level FlightAware
04:41AM 43.0750 17.3520 128° Southeast 523 602 36,900  Level FlightAware
04:41AM 43.0270 17.4360 128° Southeast 523 602 36,900  Level FlightAware
04:42AM 42.9740 17.5300 128° Southeast 523 602 36,900  Level FlightAware
04:43AM 42.9230 17.6190 128° Southeast 522 601 36,900  Level FlightAware
04:43AM 42.8690 17.7120 128° Southeast 522 601 36,900  Level FlightAware
04:44AM 42.8160 17.8040 128° Southeast 521 600 36,900  Level FlightAware
04:44AM 42.7650 17.8920 128° Southeast 520 598 36,900  Level FlightAware
04:45AM 42.7150 17.9790 128° Southeast 519 597 36,900  Level FlightAware
04:45AM 42.6620 18.0710 128° Southeast 519 597 36,900  Level FlightAware
04:46AM 42.5970 18.1820 128° Southeast 518 596 36,900  Level FlightAware
04:47AM 42.5540 18.2530 129° Southeast 515 593 36,900  Level FlightAware
04:47AM 42.4980 18.3330 133° Southeast 504 580 36,900  Level FlightAware
04:48AM 42.4190 18.4420 134° Southeast 507 583 36,900  Level FlightAware
04:49AM 42.3500 18.5350 135° Southeast 513 590 36,900  Level FlightAware
04:49AM 42.2870 18.6150 137° Southeast 514 592 36,900  Level FlightAware
04:50AM 42.2230 18.6960 137° Southeast 515 593 36,900  Level FlightAware
04:51AM 42.1750 18.7590 136° Southeast 516 594 36,900  Level FlightAware
04:51AM 42.0920 18.8650 137° Southeast 517 595 36,900  Level FlightAware
04:52AM 42.0280 18.9450 137° Southeast 519 597 36,900  Level FlightAware
04:52AM 41.9720 19.0170 136° Southeast 520 598 36,900  Level FlightAware
04:53AM 41.9120 19.0920 137° Southeast 519 597 36,900  Level FlightAware
04:54AM 41.8490 19.1720 137° Southeast 520 598 36,900  Level FlightAware
04:54AM 41.7760 19.2640 137° Southeast 522 601 36,900  Level FlightAware
04:55AM 41.7120 19.3450 137° Southeast 522 601 36,900  Level FlightAware
04:55AM 41.6480 19.4240 137° Southeast 522 601 36,900  Level FlightAware
04:56AM 41.5930 19.4930 137° Southeast 521 600 36,900  Level FlightAware
04:56AM 41.5410 19.5570 137° Southeast 521 600 36,900  Level FlightAware
04:57AM 41.4710 19.6460 136° Southeast 522 601 36,900  Level FlightAware
04:58AM 41.4040 19.7280 137° Southeast 522 601 36,900  Level FlightAware
04:58AM 41.3480 19.8040 134° Southeast 525 604 36,900  Level FlightAware
04:59AM 41.2860 19.8900 134° Southeast 525 604 36,900  Level FlightAware
04:59AM 41.2280 19.9690 134° Southeast 524 603 36,900  Level FlightAware
05:00AM 41.1700 20.0470 135° Southeast 523 602 36,900  Level FlightAware
05:01AM 41.1130 20.1250 134° Southeast 523 602 36,900  Level FlightAware
05:01AM 41.0540 20.2030 135° Southeast 525 604 36,900  Level FlightAware
05:02AM 40.9860 20.2950 134° Southeast 527 606 36,900  Level FlightAware
05:02AM 40.9320 20.3660 135° Southeast 527 606 36,900  Level FlightAware
05:03AM 40.8700 20.4490 135° Southeast 526 605 36,900  Level FlightAware
05:04AM 40.8080 20.5300 135° Southeast 524 603 36,900  Level FlightAware
05:04AM 40.7510 20.6060 135° Southeast 524 603 36,900  Level FlightAware
05:05AM 40.6890 20.6880 135° Southeast 526 605 36,900  Level FlightAware
05:05AM 40.6270 20.7690 135° Southeast 526 605 36,900  Level FlightAware
05:06AM 40.5650 20.8500 135° Southeast 526 605 36,900  Level FlightAware
05:06AM 40.5140 20.9230 133° Southeast 530 610 36,900  Level FlightAware
05:07AM 40.4580 21.0150 129° Southeast 532 612 36,900  Level FlightAware
05:08AM 40.4020 21.1110 127° Southeast 533 613 36,900  Level FlightAware
05:08AM 40.3500 21.2020 127° Southeast 533 613 36,900  Level FlightAware
05:09AM 40.3010 21.2880 127° Southeast 535 616 36,900  Level FlightAware
05:09AM 40.2480 21.3810 127° Southeast 534 615 36,900  Level FlightAware
05:10AM 40.1950 21.4740 127° Southeast 534 615 36,900  Level FlightAware
05:11AM 40.1420 21.5670 127° Southeast 533 613 36,900  Level FlightAware
05:11AM 40.0770 21.6780 127° Southeast 530 610 36,900  Level FlightAware
05:12AM 40.0310 21.7590 127° Southeast 527 606 36,900  Level FlightAware
05:13AM 39.9750 21.8560 127° Southeast 527 606 36,900  Level FlightAware
05:13AM 39.9210 21.9480 127° Southeast 525 604 36,900  Level FlightAware
05:14AM 39.8720 22.0330 127° Southeast 525 604 36,900  Level FlightAware
05:14AM 39.8190 22.1240 127° Southeast 527 606 36,900  Level FlightAware
05:15AM 39.7590 22.2240 128° Southeast 527 606 36,900  Level FlightAware
05:15AM 39.7170 22.2960 127° Southeast 526 605 36,900  Level FlightAware
05:16AM 39.6700 22.3760 127° Southeast 526 605 36,900  Level FlightAware
05:17AM 39.6050 22.4850 128° Southeast 525 604 36,900  Level FlightAware
05:17AM 39.5620 22.5580 127° Southeast 523 602 36,900  Level FlightAware
05:18AM 39.5130 22.6400 128° Southeast 522 601 36,900  Level FlightAware
05:18AM 39.4510 22.7430 128° Southeast 518 596 36,900  Level FlightAware
05:19AM 39.4010 22.8260 128° Southeast 513 590 36,900  Level FlightAware
05:20AM 39.3520 22.9080 128° Southeast 511 588 36,900  Level FlightAware
05:20AM 39.3000 22.9940 128° Southeast 512 589 36,900  Level FlightAware
05:21AM 39.2550 23.0690 128° Southeast 511 588 36,900  Level FlightAware
05:21AM 39.1940 23.1680 128° Southeast 512 589 36,900  Level FlightAware
05:22AM 39.1460 23.2470 128° Southeast 512 589 36,900  Level FlightAware
05:23AM 39.0920 23.3350 128° Southeast 513 590 36,900  Level FlightAware
05:23AM 39.0380 23.4220 129° Southeast 514 592 36,900  Level FlightAware
05:24AM 38.9930 23.4950 128° Southeast 516 594 36,900  Level FlightAware
05:24AM 38.9390 23.5830 128° Southeast 516 594 36,900  Level FlightAware
05:25AM 38.8860 23.6690 128° Southeast 516 594 36,900  Level FlightAware
05:25AM 38.8330 23.7550 128° Southeast 516 594 36,900  Level FlightAware
05:26AM 38.7840 23.8330 129° Southeast 516 594 36,900  Level FlightAware
05:27AM 38.7320 23.9160 129° Southeast 515 593 36,900  Level FlightAware
05:27AM 38.6780 24.0030 128° Southeast 514 592 36,900  Level FlightAware
05:28AM 38.6230 24.0900 129° Southeast 515 593 36,900  Level FlightAware
05:28AM 38.5740 24.1670 129° Southeast 515 593 36,900  Level FlightAware
05:29AM 38.5220 24.2500 129° Southeast 515 593 36,900  Level FlightAware
05:30AM 38.4670 24.3380 129° Southeast 516 594 36,900  Level FlightAware
05:30AM 38.4120 24.4240 129° Southeast 516 594 36,900  Level FlightAware
05:31AM 38.3660 24.4970 129° Southeast 516 594 36,900  Level FlightAware
05:31AM 38.3130 24.5790 129° Southeast 516 594 36,900  Level FlightAware
05:32AM 38.2550 24.6690 129° Southeast 516 594 36,900  Level FlightAware
05:32AM 38.2020 24.7520 129° Southeast 516 594 36,900  Level FlightAware
05:33AM 38.1530 24.8280 129° Southeast 517 595 36,900  Level FlightAware
05:34AM 38.1010 24.9100 129° Southeast 518 596 36,900  Level FlightAware
05:34AM 38.0450 24.9960 130° Southeast 519 597 36,900  Level FlightAware
05:35AM 37.9950 25.0740 129° Southeast 518 596 36,900  Level FlightAware
05:35AM 37.9390 25.1590 130° Southeast 517 595 36,900  Level FlightAware
05:36AM 37.8840 25.2440 129° Southeast 518 596 36,900  Level FlightAware
05:36AM 37.8330 25.3210 130° Southeast 517 595 36,900  Level FlightAware
05:37AM 37.7770 25.4070 129° Southeast 516 594 36,900  Level FlightAware
05:38AM 37.7240 25.4880 130° Southeast 516 594 36,900  Level FlightAware
05:38AM 37.6750 25.5630 130° Southeast 516 594 36,900  Level FlightAware
05:39AM 37.6180 25.6490 130° Southeast 516 594 36,900  Level FlightAware
05:39AM 37.5630 25.7320 130° Southeast 516 594 36,900  Level FlightAware
05:40AM 37.5100 25.8130 130° Southeast 517 595 36,900  Level FlightAware
05:41AM 37.4610 25.8870 130° Southeast 516 594 36,900  Level FlightAware
05:41AM 37.4070 25.9680 130° Southeast 517 595 36,900  Level FlightAware
05:42AM 37.3570 26.0430 130° Southeast 517 595 36,900  Level FlightAware
05:42AM 37.3000 26.1280 130° Southeast 518 596 36,900  Level FlightAware
05:43AM 37.2460 26.2080 130° Southeast 518 596 36,900  Level FlightAware
05:43AM 37.1900 26.2930 130° Southeast 515 593 36,900  Level FlightAware
05:44AM 37.1360 26.3720 131° Southeast 513 590 36,900 60 Level FlightAware
05:45AM 37.0850 26.4490 130° Southeast 513 590 37,000  Climbing FlightAware
05:45AM 37.0260 26.5360 130° Southeast 513 590 36,900 -120 Descending FlightAware
05:46AM 36.9730 26.6140 130° Southeast 513 590 36,900  Level FlightAware
05:46AM 36.9210 26.6910 130° Southeast 513 590 36,900  Level FlightAware
05:47AM 36.8660 26.7720 130° Southeast 512 589 36,900  Level FlightAware
05:48AM 36.8150 26.8460 131° Southeast 511 588 36,900  Level FlightAware
05:48AM 36.7460 26.9470 130° Southeast 510 587 36,900  Level FlightAware
05:49AM 36.6950 27.0220 130° Southeast 510 587 36,900  Level FlightAware
05:49AM 36.6420 27.1000 130° Southeast 511 588 36,900  Level FlightAware
05:50AM 36.5890 27.1780 130° Southeast 511 588 36,900  Level FlightAware
05:51AM 36.5240 27.2710 131° Southeast 512 589 36,900  Level FlightAware
05:51AM 36.4680 27.3510 131° Southeast 512 589 36,900  Level FlightAware
05:52AM 36.4120 27.4340 130° Southeast 512 589 36,900  Level FlightAware
05:53AM 36.3260 27.5560 131° Southeast 514 592 36,900  Level FlightAware
05:53AM 36.2750 27.6310 130° Southeast 513 590 36,900  Level FlightAware
05:54AM 36.2220 27.7060 131° Southeast 512 589 36,900  Level FlightAware
05:55AM 36.1650 27.7870 131° Southeast 511 588 36,900  Level FlightAware
05:55AM 36.1090 27.8680 131° Southeast 510 587 36,900  Level FlightAware
05:56AM 36.0590 27.9390 131° Southeast 509 586 36,900  Level FlightAware
05:56AM 36.0050 28.0160 131° Southeast 509 586 36,900  Level FlightAware
05:57AM 35.9480 28.0980 131° Southeast 509 586 36,900  Level FlightAware
05:58AM 35.8940 28.1740 131° Southeast 510 587 36,900  Level FlightAware
05:58AM 35.8430 28.2460 131° Southeast 510 587 36,900  Level FlightAware
05:59AM 35.7900 28.3200 131° Southeast 510 587 36,900  Level FlightAware
05:59AM 35.7280 28.4080 131° Southeast 510 587 36,900  Level FlightAware
06:00AM 35.6790 28.4770 131° Southeast 510 587 36,900  Level FlightAware
06:00AM 35.6230 28.5560 131° Southeast 511 588 36,900  Level FlightAware
06:01AM 35.5690 28.6310 132° Southeast 510 587 36,900  Level FlightAware
06:02AM 35.5170 28.7040 131° Southeast 513 590 36,900  Level FlightAware
06:02AM 35.4590 28.7840 132° Southeast 513 590 36,900  Level FlightAware
06:03AM 35.4040 28.8620 131° Southeast 513 590 36,900  Level FlightAware
06:03AM 35.3500 28.9370 131° Southeast 515 593 36,900  Level FlightAware
06:04AM 35.2880 29.0230 131° Southeast 514 592 36,900  Level FlightAware
06:05AM 35.2210 29.1160 131° Southeast 515 593 36,900  Level FlightAware
06:05AM 35.1640 29.1940 132° Southeast 517 595 36,900  Level FlightAware
06:06AM 35.1100 29.2690 131° Southeast 517 595 36,900  Level FlightAware
06:07AM 35.0380 29.3690 131° Southeast 511 588 36,900  Level FlightAware
06:07AM 34.9900 29.4360 131° Southeast 511 588 36,900  Level FlightAware
06:08AM 34.9270 29.5200 132° Southeast 513 590 36,900  Level FlightAware
06:08AM 34.8670 29.6010 132° Southeast 512 589 36,900  Level FlightAware
06:09AM 34.8030 29.6890 132° Southeast 512 589 36,900  Level FlightAware
06:10AM 34.7450 29.7680 132° Southeast 512 589 36,900  Level FlightAware
06:10AM 34.6860 29.8470 132° Southeast 511 588 36,900  Level FlightAware
06:11AM 34.6450 29.9020 132° Southeast 511 588 36,900  Level FlightAware
06:12AM 34.5950 29.9720 131° Southeast 511 588 36,900  Level FlightAware
06:12AM 34.5480 30.0390 130° Southeast 511 588 36,900  Level FlightAware
06:13AM 34.5000 30.1890 111° Southeast 36,900  Level FlightAware
06:13AM 34.4930 30.2050 118° Southeast 36,900  Level FlightAware
06:13AM 34.4510 30.2920 120° Southeast 518 596 36,900  Level FlightAware
06:14AM 34.4100 30.3790 120° Southeast 516 594 36,900  Level FlightAware
06:15AM 34.3620 30.4760 121° Southeast 517 595 36,900  Level FlightAware
06:15AM 34.3180 30.5660 121° Southeast 517 595 36,900  Level FlightAware
06:16AM 34.2760 30.6520 121° Southeast 514 592 36,900  Level FlightAware
06:16AM 34.2350 30.7370 120° Southeast 515 593 36,900  Level FlightAware
06:17AM 34.1910 30.8260 121° Southeast 518 596 36,900  Level FlightAware
06:18AM 34.1510 30.9100 120° Southeast 514 592 36,900  Level FlightAware
06:18AM 34.1050 31.0040 121° Southeast 514 592 36,900  Level FlightAware
06:19AM 34.0620 31.0910 121° Southeast 516 594 36,900  Level FlightAware
06:19AM 34.0130 31.1940 120° Southeast 516 594 36,900  Level FlightAware
06:20AM 33.9690 31.2800 122° Southeast 518 596 36,900  Level FlightAware
06:21AM 33.9250 31.3680 121° Southeast 519 597 36,900  Level FlightAware
06:21AM 33.8830 31.4550 120° Southeast 519 597 36,900  Level FlightAware
06:22AM 33.8380 31.5450 121° Southeast 519 597 36,900  Level FlightAware
06:22AM 33.7940 31.6340 121° Southeast 519 597 36,900  Level FlightAware
06:23AM 33.7520 31.7190 121° Southeast 520 598 36,900  Level FlightAware
06:23AM 33.7080 31.8060 121° Southeast 520 598 36,900  Level FlightAware
06:24AM 33.6630 31.8970 121° Southeast 520 598 36,900  Level FlightAware
06:25AM 33.6190 31.9840 121° Southeast 520 598 36,900  Level FlightAware
06:25AM 33.5680 32.0860 121° Southeast 519 597 36,900  Level FlightAware
06:26AM 33.5360 32.1480 122° Southeast 524 603 36,900  Level FlightAware
06:27AM 33.4790 32.2610 121° Southeast 523 602 36,900  Level FlightAware
06:27AM 33.4390 32.3410 121° Southeast 518 596 36,900  Level FlightAware
06:28AM 33.3920 32.4340 121° Southeast 521 600 36,900  Level FlightAware
06:28AM 33.3400 32.5350 122° Southeast 521 600 36,900 -120 Level FlightAware
06:29AM 33.3010 32.6120 121° Southeast 519 597 36,800 -1,260 Descending FlightAware
06:30AM 33.2510 32.7100 121° Southeast 514 592 35,400 -2,160 Descending FlightAware
06:30AM 33.2130 32.7840 122° Southeast 507 583 34,200 -2,220 Descending FlightAware
06:31AM 33.3880 32.4420 302° West 507 583 32,700 -2,100 Descending FlightAware
06:31AM 33.1230 32.9580 121° Southeast 487 560 31,500 -2,280 Descending FlightAware
06:32AM 33.0780 33.0460 121° Southeast 479 551 30,000 -2,280 Descending FlightAware
06:33AM 33.0400 33.1190 122° Southeast 472 543 28,800 -2,040 Descending FlightAware
06:33AM 32.9890 33.2300 119° Southeast 475 547 27,200 -1,560 Descending FlightAware
06:34AM 32.9820 33.3300 95° East 434 499 26,600 -1,080 Descending FlightAware
06:35AM 32.9910 33.4120 83° East 421 484 25,900 -1,500 Descending FlightAware
06:35AM 32.9990 33.4890 83° East 398 458 24,900 -1,920 Descending FlightAware
06:36AM 33.0080 33.5580 81° East 395 455 23,800 -1,920 Descending FlightAware
06:36AM 33.0180 33.6370 81° East 393 452 22,700 -1,800 Descending FlightAware
06:37AM 33.0290 33.7220 81° East 389 448 21,500 -1,740 Descending FlightAware
06:38AM 33.0230 33.7880 96° East 374 430 20,600 -1,860 Descending FlightAware
06:38AM 33.0140 33.8100 116° Southeast 366 421 20,200 -2,040 Descending FlightAware
06:38AM 33.0040 33.8260 127° Southeast 359 413 19,900 -1,740 Descending FlightAware
06:38AM 32.9820 33.8490 139° Southeast 347 399 19,400 -1,680 Descending FlightAware
06:39AM 32.9320 33.8820 151° Southeast 335 386 18,400 -1,620 Descending FlightAware
06:39AM 32.8880 33.9090 153° Southeast 330 380 17,600 -1,500 Descending FlightAware
06:40AM 32.8370 33.9410 152° Southeast 324 373 16,700 -1,560 Descending FlightAware
06:41AM 32.7890 33.9710 152° Southeast 320 368 15,700 -1,620 Descending FlightAware
06:41AM 32.7490 33.9970 151° Southeast 318 366 14,900 -1,500 Descending FlightAware
06:42AM 32.7020 34.0260 153° Southeast 317 365 14,000 -1,560 Descending FlightAware
06:42AM 32.6570 34.0550 152° Southeast 310 357 13,100 -1,500 Descending FlightAware
06:43AM 32.6120 34.0830 152° Southeast 303 349 12,300 -1,440 Descending FlightAware
06:43AM 32.5670 34.1110 152° Southeast 301 346 11,400 -1,500 Descending FlightAware
06:44AM 32.5230 34.1380 153° Southeast 299 344 10,500 -1,440 Descending FlightAware
06:45AM 32.4910 34.1620 148° Southeast 301 346 9,900 -1,440 Descending FlightAware
06:45AM 32.4720 34.1820 138° Southeast 303 349 9,400 -1,560 Descending FlightAware
06:45AM 32.4550 34.2020 135° Southeast 301 346 9,000 -1,500 Descending FlightAware
06:45AM 32.4350 34.2260 135° Southeast 301 346 8,500 -1,320 Descending FlightAware
06:46AM 32.4140 34.2510 135° Southeast 301 346 8,100 -1,020 Descending FlightAware
06:46AM 32.3940 34.2750 135° Southeast 301 346 7,800 -780 Descending FlightAware
06:46AM 32.3740 34.2980 136° Southeast 299 344 7,600 -780 Descending FlightAware
06:47AM 32.3540 34.3210 136° Southeast 299 344 7,300 -840 Descending FlightAware
06:47AM 32.3270 34.3520 136° Southeast 298 343 6,900 -840 Descending FlightAware
06:48AM 32.3150 34.3670 133° Southeast 297 342 6,700 -780 Descending FlightAware
06:48AM 32.2960 34.3880 137° Southeast 295 339 6,500 -900 Descending FlightAware
06:48AM 32.2720 34.4160 135° Southeast 293 337 6,100 -960 Descending FlightAware
06:49AM 32.2520 34.4390 136° Southeast 291 335 5,800 -840 Descending FlightAware
06:49AM 32.2330 34.4670 129° Southeast 291 335 5,500 -780 Descending FlightAware
06:49AM 32.2130 34.5060 121° Southeast 289 333 5,100 -420 Descending FlightAware
06:50AM 32.1950 34.5390 123° Southeast 289 333 5,100  Level FlightAware
06:50AM 32.1770 34.5750 121° Southeast 286 329 5,100  Level FlightAware
06:51AM 32.1640 34.6000 122° Southeast 285 328 5,100  Level FlightAware
06:51AM 32.1490 34.6280 122° Southeast 287 330 5,100  Level FlightAware
06:51AM 32.1260 34.6670 125° Southeast 273 314 5,100  Level FlightAware
06:52AM 32.1140 34.6900 122° Southeast 262 302 5,100  Level FlightAware
06:52AM 32.0910 34.7320 123° Southeast 253 291 5,100  Level FlightAware
06:53AM 32.1040 34.7070 302° West 243 280 5,100  Level FlightAware
06:53AM 32.0690 34.7660 125° Southeast 242 278 5,100 -540 Level FlightAware
06:53AM 32.0520 34.7870 134° Southeast 238 274 4,800 -480 Descending FlightAware
06:54AM 32.0310 34.8100 137° Southeast 240 276 4,700 -240 Descending FlightAware
06:54AM 32.0500 34.7880 316° Northwest 214 246 4,600 -180 Descending FlightAware
06:55AM 32.0340 34.8070 135° Southeast 214 246 4,600 -1,080 Level FlightAware
06:55AM 31.9840 34.8940 124° Southeast 179 206 3,300 -1,500 Descending FlightAware
06:56AM 31.9890 34.9160 75° East 175 201 2,800 -1,380 Descending FlightAware
06:56AM 31.9930 34.9350 76° East 175 201 2,300 -1,500 Descending FlightAware
06:56AM 32.0010 34.9500 58° Northeast 170 196 1,900 -1,020 Descending FlightAware
06:57AM 32.0150 34.9550 17° North 158 182 1,700 -840 Descending FlightAware
06:57AM 32.0210 34.9530 344° North 154 177 1,500 -900 Descending FlightAware
06:57AM 32.0290 34.9500 342° North 152 175 1,400 -180 Descending FlightAware
06:58AM 32.0430 34.9400 329° Northwest 151 174 1,400  Level FlightAware
07:00AM 32.0095 34.8769 238° Southwest  Level Estimated
07:01AM 32.0095 34.8769 270° West  Level Estimated